sensor_id;sensor_type;location;lat;lon;timestamp;P1;durP1;ratioP1;P2;durP2;ratioP2
14797;SDS011;7490;63.708;20.368;2023-09-07T00:01:12;4.23;;;1.90;;
14797;SDS011;7490;63.708;20.368;2023-09-07T00:03:38;6.80;;;2.03;;
14797;SDS011;7490;63.708;20.368;2023-09-07T00:06:06;6.30;;;2.17;;
14797;SDS011;7490;63.708;20.368;2023-09-07T00:08:32;5.80;;;2.00;;
14797;SDS011;7490;63.708;20.368;2023-09-07T00:11:04;7.30;;;2.20;;
14797;SDS011;7490;63.708;20.368;2023-09-07T00:13:31;6.07;;;1.93;;
14797;SDS011;7490;63.708;20.368;2023-09-07T00:16:00;8.10;;;2.37;;
14797;SDS011;7490;63.708;20.368;2023-09-07T00:18:26;10.00;;;2.30;;
14797;SDS011;7490;63.708;20.368;2023-09-07T00:20:52;6.63;;;2.53;;
14797;SDS011;7490;63.708;20.368;2023-09-07T00:23:18;7.60;;;2.80;;
14797;SDS011;7490;63.708;20.368;2023-09-07T00:25:45;5.87;;;2.53;;
14797;SDS011;7490;63.708;20.368;2023-09-07T00:28:11;7.50;;;2.77;;
14797;SDS011;7490;63.708;20.368;2023-09-07T00:30:36;6.47;;;2.40;;
14797;SDS011;7490;63.708;20.368;2023-09-07T00:33:02;8.13;;;2.10;;
14797;SDS011;7490;63.708;20.368;2023-09-07T00:35:28;5.40;;;2.40;;
14797;SDS011;7490;63.708;20.368;2023-09-07T00:37:54;8.00;;;2.50;;
14797;SDS011;7490;63.708;20.368;2023-09-07T00:40:20;7.40;;;2.40;;
14797;SDS011;7490;63.708;20.368;2023-09-07T00:42:47;8.83;;;2.40;;
14797;SDS011;7490;63.708;20.368;2023-09-07T00:45:12;5.50;;;2.67;;
14797;SDS011;7490;63.708;20.368;2023-09-07T00:47:38;5.67;;;1.90;;
14797;SDS011;7490;63.708;20.368;2023-09-07T00:50:04;4.57;;;2.43;;
14797;SDS011;7490;63.708;20.368;2023-09-07T00:52:31;7.80;;;2.30;;
14797;SDS011;7490;63.708;20.368;2023-09-07T00:54:57;5.93;;;2.40;;
14797;SDS011;7490;63.708;20.368;2023-09-07T00:57:24;6.50;;;2.43;;
14797;SDS011;7490;63.708;20.368;2023-09-07T00:59:50;9.67;;;3.13;;
14797;SDS011;7490;63.708;20.368;2023-09-07T01:02:15;8.10;;;2.20;;
14797;SDS011;7490;63.708;20.368;2023-09-07T01:04:41;7.30;;;1.90;;
14797;SDS011;7490;63.708;20.368;2023-09-07T01:07:14;10.10;;;2.43;;
14797;SDS011;7490;63.708;20.368;2023-09-07T01:09:44;9.13;;;2.57;;
14797;SDS011;7490;63.708;20.368;2023-09-07T01:12:14;5.90;;;2.30;;
14797;SDS011;7490;63.708;20.368;2023-09-07T01:14:40;5.40;;;1.80;;
14797;SDS011;7490;63.708;20.368;2023-09-07T01:17:06;5.13;;;1.97;;
14797;SDS011;7490;63.708;20.368;2023-09-07T01:19:33;10.57;;;2.30;;
14797;SDS011;7490;63.708;20.368;2023-09-07T01:21:59;8.00;;;2.50;;
14797;SDS011;7490;63.708;20.368;2023-09-07T01:24:25;4.50;;;2.20;;
14797;SDS011;7490;63.708;20.368;2023-09-07T01:26:53;11.43;;;2.83;;
14797;SDS011;7490;63.708;20.368;2023-09-07T01:29:19;10.50;;;2.73;;
14797;SDS011;7490;63.708;20.368;2023-09-07T01:31:45;7.50;;;2.47;;
14797;SDS011;7490;63.708;20.368;2023-09-07T01:34:11;6.33;;;2.33;;
14797;SDS011;7490;63.708;20.368;2023-09-07T01:36:36;7.57;;;2.30;;
14797;SDS011;7490;63.708;20.368;2023-09-07T01:39:03;7.13;;;2.20;;
14797;SDS011;7490;63.708;20.368;2023-09-07T01:41:30;5.40;;;2.20;;
14797;SDS011;7490;63.708;20.368;2023-09-07T01:43:56;6.70;;;2.50;;
14797;SDS011;7490;63.708;20.368;2023-09-07T01:46:22;8.93;;;2.23;;
14797;SDS011;7490;63.708;20.368;2023-09-07T01:48:48;11.73;;;2.70;;
14797;SDS011;7490;63.708;20.368;2023-09-07T01:51:13;5.70;;;2.47;;
14797;SDS011;7490;63.708;20.368;2023-09-07T01:53:39;11.83;;;2.27;;
14797;SDS011;7490;63.708;20.368;2023-09-07T01:56:04;9.37;;;2.20;;
14797;SDS011;7490;63.708;20.368;2023-09-07T01:58:30;6.57;;;2.10;;
14797;SDS011;7490;63.708;20.368;2023-09-07T02:00:59;6.10;;;2.00;;
14797;SDS011;7490;63.708;20.368;2023-09-07T02:03:25;6.37;;;2.23;;
14797;SDS011;7490;63.708;20.368;2023-09-07T02:05:52;10.63;;;2.33;;
14797;SDS011;7490;63.708;20.368;2023-09-07T02:08:18;7.10;;;2.43;;
14797;SDS011;7490;63.708;20.368;2023-09-07T02:10:44;5.73;;;2.17;;
14797;SDS011;7490;63.708;20.368;2023-09-07T02:13:10;6.97;;;2.23;;
14797;SDS011;7490;63.708;20.368;2023-09-07T02:15:39;7.83;;;2.20;;
14797;SDS011;7490;63.708;20.368;2023-09-07T02:18:05;7.43;;;2.20;;
14797;SDS011;7490;63.708;20.368;2023-09-07T02:20:32;4.63;;;2.17;;
14797;SDS011;7490;63.708;20.368;2023-09-07T02:22:58;5.57;;;2.13;;
14797;SDS011;7490;63.708;20.368;2023-09-07T02:25:23;10.00;;;2.80;;
14797;SDS011;7490;63.708;20.368;2023-09-07T02:27:49;8.20;;;2.60;;
14797;SDS011;7490;63.708;20.368;2023-09-07T02:30:15;6.20;;;2.00;;
14797;SDS011;7490;63.708;20.368;2023-09-07T02:32:42;7.57;;;2.03;;
14797;SDS011;7490;63.708;20.368;2023-09-07T02:35:08;6.57;;;2.57;;
14797;SDS011;7490;63.708;20.368;2023-09-07T02:37:35;8.20;;;2.30;;
14797;SDS011;7490;63.708;20.368;2023-09-07T02:40:01;9.30;;;2.70;;
14797;SDS011;7490;63.708;20.368;2023-09-07T02:42:26;7.37;;;2.30;;
14797;SDS011;7490;63.708;20.368;2023-09-07T02:44:52;6.43;;;2.27;;
14797;SDS011;7490;63.708;20.368;2023-09-07T02:47:18;9.40;;;2.73;;
14797;SDS011;7490;63.708;20.368;2023-09-07T02:49:44;8.97;;;2.40;;
14797;SDS011;7490;63.708;20.368;2023-09-07T02:52:09;6.03;;;2.43;;
14797;SDS011;7490;63.708;20.368;2023-09-07T02:54:35;9.23;;;2.47;;
14797;SDS011;7490;63.708;20.368;2023-09-07T02:57:01;9.23;;;2.73;;
14797;SDS011;7490;63.708;20.368;2023-09-07T02:59:27;9.60;;;2.73;;
14797;SDS011;7490;63.708;20.368;2023-09-07T03:01:53;7.63;;;2.87;;
14797;SDS011;7490;63.708;20.368;2023-09-07T03:04:18;7.67;;;2.63;;
14797;SDS011;7490;63.708;20.368;2023-09-07T03:06:44;8.53;;;2.80;;
14797;SDS011;7490;63.708;20.368;2023-09-07T03:09:09;10.87;;;2.60;;
14797;SDS011;7490;63.708;20.368;2023-09-07T03:11:35;9.80;;;2.50;;
14797;SDS011;7490;63.708;20.368;2023-09-07T03:14:01;9.70;;;2.70;;
14797;SDS011;7490;63.708;20.368;2023-09-07T03:16:26;8.73;;;2.70;;
14797;SDS011;7490;63.708;20.368;2023-09-07T03:18:52;7.10;;;3.10;;
14797;SDS011;7490;63.708;20.368;2023-09-07T03:21:18;6.40;;;2.50;;
14797;SDS011;7490;63.708;20.368;2023-09-07T03:23:43;7.67;;;2.73;;
14797;SDS011;7490;63.708;20.368;2023-09-07T03:26:10;10.97;;;3.20;;
14797;SDS011;7490;63.708;20.368;2023-09-07T03:28:35;10.43;;;2.90;;
14797;SDS011;7490;63.708;20.368;2023-09-07T03:31:01;11.43;;;3.30;;
14797;SDS011;7490;63.708;20.368;2023-09-07T03:33:27;10.33;;;3.63;;
14797;SDS011;7490;63.708;20.368;2023-09-07T03:35:53;11.73;;;3.33;;
14797;SDS011;7490;63.708;20.368;2023-09-07T03:38:23;10.47;;;3.50;;
14797;SDS011;7490;63.708;20.368;2023-09-07T03:40:49;15.43;;;3.33;;
14797;SDS011;7490;63.708;20.368;2023-09-07T03:43:15;10.40;;;3.20;;
14797;SDS011;7490;63.708;20.368;2023-09-07T03:45:40;8.57;;;2.93;;
14797;SDS011;7490;63.708;20.368;2023-09-07T03:48:06;15.20;;;3.87;;
14797;SDS011;7490;63.708;20.368;2023-09-07T03:50:32;13.23;;;3.40;;
14797;SDS011;7490;63.708;20.368;2023-09-07T03:52:58;15.57;;;3.80;;
14797;SDS011;7490;63.708;20.368;2023-09-07T03:55:24;13.03;;;3.57;;
14797;SDS011;7490;63.708;20.368;2023-09-07T03:57:49;8.90;;;3.87;;
14797;SDS011;7490;63.708;20.368;2023-09-07T04:00:15;11.10;;;3.67;;
14797;SDS011;7490;63.708;20.368;2023-09-07T04:02:43;8.70;;;3.30;;
14797;SDS011;7490;63.708;20.368;2023-09-07T04:05:08;15.43;;;3.97;;
14797;SDS011;7490;63.708;20.368;2023-09-07T04:07:35;13.37;;;4.07;;
14797;SDS011;7490;63.708;20.368;2023-09-07T04:10:02;12.50;;;4.07;;
14797;SDS011;7490;63.708;20.368;2023-09-07T04:12:27;13.23;;;3.57;;
14797;SDS011;7490;63.708;20.368;2023-09-07T04:14:53;14.90;;;3.93;;
14797;SDS011;7490;63.708;20.368;2023-09-07T04:17:20;8.83;;;3.40;;
14797;SDS011;7490;63.708;20.368;2023-09-07T04:19:46;11.97;;;3.30;;
14797;SDS011;7490;63.708;20.368;2023-09-07T04:22:11;8.40;;;3.23;;
14797;SDS011;7490;63.708;20.368;2023-09-07T04:24:37;14.60;;;3.27;;
14797;SDS011;7490;63.708;20.368;2023-09-07T04:27:03;9.93;;;3.07;;
14797;SDS011;7490;63.708;20.368;2023-09-07T04:29:29;5.30;;;2.37;;
14797;SDS011;7490;63.708;20.368;2023-09-07T04:31:55;7.90;;;2.43;;
14797;SDS011;7490;63.708;20.368;2023-09-07T04:34:21;8.53;;;2.70;;
14797;SDS011;7490;63.708;20.368;2023-09-07T04:36:47;8.83;;;2.10;;
14797;SDS011;7490;63.708;20.368;2023-09-07T04:39:12;5.23;;;2.10;;
14797;SDS011;7490;63.708;20.368;2023-09-07T04:41:39;7.80;;;2.10;;
14797;SDS011;7490;63.708;20.368;2023-09-07T04:44:05;3.80;;;1.80;;
14797;SDS011;7490;63.708;20.368;2023-09-07T04:46:31;6.33;;;2.50;;
14797;SDS011;7490;63.708;20.368;2023-09-07T04:48:56;6.13;;;2.40;;
14797;SDS011;7490;63.708;20.368;2023-09-07T04:51:22;8.13;;;2.20;;
14797;SDS011;7490;63.708;20.368;2023-09-07T04:53:50;6.37;;;2.03;;
14797;SDS011;7490;63.708;20.368;2023-09-07T04:56:16;3.80;;;1.90;;
14797;SDS011;7490;63.708;20.368;2023-09-07T04:58:42;7.03;;;2.43;;
14797;SDS011;7490;63.708;20.368;2023-09-07T05:01:08;7.77;;;2.33;;
14797;SDS011;7490;63.708;20.368;2023-09-07T05:03:36;7.40;;;2.57;;
14797;SDS011;7490;63.708;20.368;2023-09-07T05:06:02;7.07;;;2.20;;
14797;SDS011;7490;63.708;20.368;2023-09-07T05:08:29;8.40;;;2.20;;
14797;SDS011;7490;63.708;20.368;2023-09-07T05:11:04;4.50;;;2.03;;
14797;SDS011;7490;63.708;20.368;2023-09-07T05:13:30;8.17;;;2.47;;
14797;SDS011;7490;63.708;20.368;2023-09-07T05:15:57;10.87;;;2.30;;
14797;SDS011;7490;63.708;20.368;2023-09-07T05:18:24;11.80;;;2.87;;
14797;SDS011;7490;63.708;20.368;2023-09-07T05:20:49;6.47;;;2.87;;
14797;SDS011;7490;63.708;20.368;2023-09-07T05:23:19;11.43;;;2.43;;
14797;SDS011;7490;63.708;20.368;2023-09-07T05:25:45;7.27;;;2.30;;
14797;SDS011;7490;63.708;20.368;2023-09-07T05:28:15;8.23;;;2.20;;
14797;SDS011;7490;63.708;20.368;2023-09-07T05:30:42;7.53;;;2.13;;
14797;SDS011;7490;63.708;20.368;2023-09-07T05:33:11;5.60;;;1.87;;
14797;SDS011;7490;63.708;20.368;2023-09-07T05:35:39;4.23;;;1.80;;
14797;SDS011;7490;63.708;20.368;2023-09-07T05:38:05;5.63;;;1.97;;
14797;SDS011;7490;63.708;20.368;2023-09-07T05:40:38;4.33;;;1.80;;
14797;SDS011;7490;63.708;20.368;2023-09-07T05:43:05;3.53;;;1.73;;
14797;SDS011;7490;63.708;20.368;2023-09-07T05:45:31;5.13;;;1.80;;
14797;SDS011;7490;63.708;20.368;2023-09-07T05:47:59;6.80;;;1.70;;
14797;SDS011;7490;63.708;20.368;2023-09-07T05:50:25;7.17;;;2.20;;
14797;SDS011;7490;63.708;20.368;2023-09-07T05:52:51;6.23;;;1.87;;
14797;SDS011;7490;63.708;20.368;2023-09-07T05:55:17;7.00;;;1.80;;
14797;SDS011;7490;63.708;20.368;2023-09-07T05:57:43;6.77;;;1.80;;
14797;SDS011;7490;63.708;20.368;2023-09-07T06:00:09;3.40;;;1.60;;
14797;SDS011;7490;63.708;20.368;2023-09-07T06:02:35;3.20;;;1.80;;
14797;SDS011;7490;63.708;20.368;2023-09-07T06:05:01;4.97;;;2.47;;
14797;SDS011;7490;63.708;20.368;2023-09-07T06:07:27;6.23;;;2.27;;
14797;SDS011;7490;63.708;20.368;2023-09-07T06:09:52;4.87;;;2.20;;
14797;SDS011;7490;63.708;20.368;2023-09-07T06:12:18;6.13;;;2.33;;
14797;SDS011;7490;63.708;20.368;2023-09-07T06:14:44;8.47;;;2.40;;
14797;SDS011;7490;63.708;20.368;2023-09-07T06:17:11;5.87;;;1.93;;
14797;SDS011;7490;63.708;20.368;2023-09-07T06:19:37;4.80;;;1.90;;
14797;SDS011;7490;63.708;20.368;2023-09-07T06:22:03;5.20;;;1.60;;
14797;SDS011;7490;63.708;20.368;2023-09-07T06:24:29;5.50;;;1.60;;
14797;SDS011;7490;63.708;20.368;2023-09-07T06:26:55;5.00;;;1.60;;
14797;SDS011;7490;63.708;20.368;2023-09-07T06:29:20;7.33;;;1.87;;
14797;SDS011;7490;63.708;20.368;2023-09-07T06:31:46;6.83;;;2.20;;
14797;SDS011;7490;63.708;20.368;2023-09-07T06:34:15;9.33;;;2.00;;
14797;SDS011;7490;63.708;20.368;2023-09-07T06:36:41;7.53;;;2.00;;
14797;SDS011;7490;63.708;20.368;2023-09-07T06:39:06;6.40;;;1.70;;
14797;SDS011;7490;63.708;20.368;2023-09-07T06:41:32;4.93;;;1.70;;
14797;SDS011;7490;63.708;20.368;2023-09-07T06:43:58;6.47;;;1.63;;
14797;SDS011;7490;63.708;20.368;2023-09-07T06:46:23;5.20;;;1.90;;
14797;SDS011;7490;63.708;20.368;2023-09-07T06:48:49;6.47;;;1.93;;
14797;SDS011;7490;63.708;20.368;2023-09-07T06:51:15;5.83;;;2.17;;
14797;SDS011;7490;63.708;20.368;2023-09-07T06:53:40;5.47;;;1.73;;
14797;SDS011;7490;63.708;20.368;2023-09-07T06:56:06;5.43;;;1.70;;
14797;SDS011;7490;63.708;20.368;2023-09-07T06:58:32;5.73;;;1.80;;
14797;SDS011;7490;63.708;20.368;2023-09-07T07:00:59;3.80;;;1.27;;
14797;SDS011;7490;63.708;20.368;2023-09-07T07:03:29;4.00;;;1.33;;
14797;SDS011;7490;63.708;20.368;2023-09-07T07:05:55;3.10;;;1.57;;
14797;SDS011;7490;63.708;20.368;2023-09-07T07:08:21;3.73;;;1.40;;
14797;SDS011;7490;63.708;20.368;2023-09-07T07:10:47;9.60;;;2.00;;
14797;SDS011;7490;63.708;20.368;2023-09-07T07:13:13;4.50;;;1.73;;
14797;SDS011;7490;63.708;20.368;2023-09-07T07:15:39;5.10;;;2.10;;
14797;SDS011;7490;63.708;20.368;2023-09-07T07:18:05;4.60;;;1.80;;
14797;SDS011;7490;63.708;20.368;2023-09-07T07:20:41;6.43;;;1.80;;
14797;SDS011;7490;63.708;20.368;2023-09-07T07:23:08;4.67;;;1.60;;
14797;SDS011;7490;63.708;20.368;2023-09-07T07:25:34;5.07;;;1.40;;
14797;SDS011;7490;63.708;20.368;2023-09-07T07:28:03;4.90;;;1.87;;
14797;SDS011;7490;63.708;20.368;2023-09-07T07:30:33;5.13;;;1.70;;
14797;SDS011;7490;63.708;20.368;2023-09-07T07:33:00;4.77;;;1.80;;
14797;SDS011;7490;63.708;20.368;2023-09-07T07:35:26;4.60;;;1.60;;
14797;SDS011;7490;63.708;20.368;2023-09-07T07:37:51;5.90;;;1.57;;
14797;SDS011;7490;63.708;20.368;2023-09-07T07:40:17;4.03;;;1.70;;
14797;SDS011;7490;63.708;20.368;2023-09-07T07:42:44;5.33;;;1.63;;
14797;SDS011;7490;63.708;20.368;2023-09-07T07:45:11;5.67;;;1.73;;
14797;SDS011;7490;63.708;20.368;2023-09-07T07:47:37;5.90;;;1.40;;
14797;SDS011;7490;63.708;20.368;2023-09-07T07:50:03;4.87;;;1.80;;
14797;SDS011;7490;63.708;20.368;2023-09-07T07:52:29;5.40;;;1.90;;
14797;SDS011;7490;63.708;20.368;2023-09-07T07:54:55;4.67;;;1.63;;
14797;SDS011;7490;63.708;20.368;2023-09-07T07:57:21;5.23;;;1.70;;
14797;SDS011;7490;63.708;20.368;2023-09-07T07:59:46;5.67;;;1.77;;
14797;SDS011;7490;63.708;20.368;2023-09-07T08:02:12;7.00;;;2.03;;
14797;SDS011;7490;63.708;20.368;2023-09-07T08:04:37;7.50;;;1.97;;
14797;SDS011;7490;63.708;20.368;2023-09-07T08:07:03;5.53;;;1.77;;
14797;SDS011;7490;63.708;20.368;2023-09-07T08:09:30;7.53;;;2.23;;
14797;SDS011;7490;63.708;20.368;2023-09-07T08:11:56;5.50;;;1.83;;
14797;SDS011;7490;63.708;20.368;2023-09-07T08:14:22;5.33;;;1.77;;
14797;SDS011;7490;63.708;20.368;2023-09-07T08:16:52;7.17;;;2.10;;
14797;SDS011;7490;63.708;20.368;2023-09-07T08:19:18;5.07;;;1.70;;
14797;SDS011;7490;63.708;20.368;2023-09-07T08:21:44;4.93;;;2.03;;
14797;SDS011;7490;63.708;20.368;2023-09-07T08:24:11;4.47;;;1.70;;
14797;SDS011;7490;63.708;20.368;2023-09-07T08:26:37;3.50;;;1.60;;
14797;SDS011;7490;63.708;20.368;2023-09-07T08:29:03;3.37;;;1.60;;
14797;SDS011;7490;63.708;20.368;2023-09-07T08:31:34;3.73;;;1.70;;
14797;SDS011;7490;63.708;20.368;2023-09-07T08:34:00;7.03;;;1.80;;
14797;SDS011;7490;63.708;20.368;2023-09-07T08:36:28;5.80;;;1.70;;
14797;SDS011;7490;63.708;20.368;2023-09-07T08:38:57;3.50;;;1.50;;
14797;SDS011;7490;63.708;20.368;2023-09-07T08:41:26;5.90;;;1.70;;
14797;SDS011;7490;63.708;20.368;2023-09-07T08:43:54;6.07;;;1.80;;
14797;SDS011;7490;63.708;20.368;2023-09-07T08:46:23;3.37;;;1.70;;
14797;SDS011;7490;63.708;20.368;2023-09-07T08:48:49;2.07;;;1.50;;
14797;SDS011;7490;63.708;20.368;2023-09-07T08:51:15;4.13;;;2.00;;
14797;SDS011;7490;63.708;20.368;2023-09-07T08:53:43;4.63;;;1.60;;
14797;SDS011;7490;63.708;20.368;2023-09-07T08:56:11;3.13;;;1.67;;
14797;SDS011;7490;63.708;20.368;2023-09-07T08:58:38;3.47;;;1.83;;
14797;SDS011;7490;63.708;20.368;2023-09-07T09:01:05;5.13;;;1.60;;
14797;SDS011;7490;63.708;20.368;2023-09-07T09:03:31;7.03;;;1.90;;
14797;SDS011;7490;63.708;20.368;2023-09-07T09:05:57;4.70;;;1.70;;
14797;SDS011;7490;63.708;20.368;2023-09-07T09:08:22;4.63;;;1.50;;
14797;SDS011;7490;63.708;20.368;2023-09-07T09:10:59;5.17;;;1.53;;
14797;SDS011;7490;63.708;20.368;2023-09-07T09:13:31;5.30;;;1.77;;
14797;SDS011;7490;63.708;20.368;2023-09-07T09:16:01;5.70;;;1.93;;
14797;SDS011;7490;63.708;20.368;2023-09-07T09:18:27;8.77;;;2.43;;
14797;SDS011;7490;63.708;20.368;2023-09-07T09:20:56;9.73;;;1.97;;
14797;SDS011;7490;63.708;20.368;2023-09-07T09:23:30;6.20;;;1.90;;
14797;SDS011;7490;63.708;20.368;2023-09-07T09:25:58;5.97;;;2.23;;
14797;SDS011;7490;63.708;20.368;2023-09-07T09:28:30;5.03;;;1.70;;
14797;SDS011;7490;63.708;20.368;2023-09-07T09:30:59;6.87;;;1.63;;
14797;SDS011;7490;63.708;20.368;2023-09-07T09:33:26;3.07;;;2.10;;
14797;SDS011;7490;63.708;20.368;2023-09-07T09:35:53;4.50;;;1.80;;
14797;SDS011;7490;63.708;20.368;2023-09-07T09:38:19;5.43;;;1.70;;
14797;SDS011;7490;63.708;20.368;2023-09-07T09:40:45;3.50;;;1.70;;
14797;SDS011;7490;63.708;20.368;2023-09-07T09:43:12;4.03;;;1.60;;
14797;SDS011;7490;63.708;20.368;2023-09-07T09:45:38;4.97;;;1.90;;
14797;SDS011;7490;63.708;20.368;2023-09-07T09:48:07;6.77;;;2.10;;
14797;SDS011;7490;63.708;20.368;2023-09-07T09:50:34;8.10;;;1.83;;
14797;SDS011;7490;63.708;20.368;2023-09-07T09:53:04;4.43;;;1.87;;
14797;SDS011;7490;63.708;20.368;2023-09-07T09:55:32;6.60;;;1.80;;
14797;SDS011;7490;63.708;20.368;2023-09-07T09:57:58;3.73;;;1.67;;
14797;SDS011;7490;63.708;20.368;2023-09-07T10:00:24;3.87;;;1.70;;
14797;SDS011;7490;63.708;20.368;2023-09-07T10:06:09;4.07;;;1.90;;
14797;SDS011;7490;63.708;20.368;2023-09-07T10:08:59;3.77;;;1.93;;
14797;SDS011;7490;63.708;20.368;2023-09-07T10:11:38;5.37;;;1.90;;
14797;SDS011;7490;63.708;20.368;2023-09-07T10:14:05;5.03;;;1.83;;
14797;SDS011;7490;63.708;20.368;2023-09-07T10:16:44;5.87;;;1.73;;
14797;SDS011;7490;63.708;20.368;2023-09-07T10:19:18;5.23;;;1.83;;
14797;SDS011;7490;63.708;20.368;2023-09-07T10:21:44;6.63;;;1.80;;
14797;SDS011;7490;63.708;20.368;2023-09-07T10:24:09;5.33;;;2.03;;
14797;SDS011;7490;63.708;20.368;2023-09-07T10:26:35;6.03;;;1.80;;
14797;SDS011;7490;63.708;20.368;2023-09-07T10:29:02;3.80;;;1.97;;
14797;SDS011;7490;63.708;20.368;2023-09-07T10:31:29;4.27;;;1.60;;
14797;SDS011;7490;63.708;20.368;2023-09-07T10:33:55;3.47;;;1.87;;
14797;SDS011;7490;63.708;20.368;2023-09-07T10:36:25;5.07;;;2.10;;
14797;SDS011;7490;63.708;20.368;2023-09-07T10:38:54;4.97;;;1.87;;
14797;SDS011;7490;63.708;20.368;2023-09-07T10:41:21;3.07;;;1.67;;
14797;SDS011;7490;63.708;20.368;2023-09-07T10:43:48;4.57;;;1.77;;
14797;SDS011;7490;63.708;20.368;2023-09-07T10:46:15;4.20;;;1.70;;
14797;SDS011;7490;63.708;20.368;2023-09-07T10:48:44;5.97;;;1.90;;
14797;SDS011;7490;63.708;20.368;2023-09-07T10:51:09;5.03;;;2.17;;
14797;SDS011;7490;63.708;20.368;2023-09-07T10:53:35;4.53;;;1.70;;
14797;SDS011;7490;63.708;20.368;2023-09-07T10:56:05;2.57;;;1.70;;
14797;SDS011;7490;63.708;20.368;2023-09-07T10:58:31;5.00;;;1.90;;
14797;SDS011;7490;63.708;20.368;2023-09-07T11:00:58;4.77;;;2.07;;
14797;SDS011;7490;63.708;20.368;2023-09-07T11:03:25;5.93;;;2.03;;
14797;SDS011;7490;63.708;20.368;2023-09-07T11:06:02;3.67;;;1.90;;
14797;SDS011;7490;63.708;20.368;2023-09-07T11:08:32;5.33;;;1.70;;
14797;SDS011;7490;63.708;20.368;2023-09-07T11:10:58;4.27;;;1.80;;
14797;SDS011;7490;63.708;20.368;2023-09-07T11:13:25;4.93;;;2.10;;
14797;SDS011;7490;63.708;20.368;2023-09-07T11:15:56;4.60;;;1.80;;
14797;SDS011;7490;63.708;20.368;2023-09-07T11:18:23;3.53;;;1.90;;
14797;SDS011;7490;63.708;20.368;2023-09-07T11:20:50;2.63;;;1.60;;
14797;SDS011;7490;63.708;20.368;2023-09-07T11:23:17;3.50;;;1.43;;
14797;SDS011;7490;63.708;20.368;2023-09-07T11:25:43;3.60;;;1.70;;
14797;SDS011;7490;63.708;20.368;2023-09-07T11:28:11;3.80;;;1.63;;
14797;SDS011;7490;63.708;20.368;2023-09-07T11:30:37;3.83;;;1.63;;
14797;SDS011;7490;63.708;20.368;2023-09-07T11:33:14;4.70;;;1.50;;
14797;SDS011;7490;63.708;20.368;2023-09-07T11:35:41;4.60;;;1.40;;
14797;SDS011;7490;63.708;20.368;2023-09-07T11:38:06;5.83;;;1.80;;
14797;SDS011;7490;63.708;20.368;2023-09-07T11:40:35;4.43;;;1.60;;
14797;SDS011;7490;63.708;20.368;2023-09-07T11:43:00;5.23;;;1.50;;
14797;SDS011;7490;63.708;20.368;2023-09-07T11:45:26;3.97;;;1.67;;
14797;SDS011;7490;63.708;20.368;2023-09-07T11:47:52;1.83;;;1.30;;
14797;SDS011;7490;63.708;20.368;2023-09-07T11:50:18;2.67;;;1.50;;
14797;SDS011;7490;63.708;20.368;2023-09-07T11:52:46;2.33;;;1.43;;
14797;SDS011;7490;63.708;20.368;2023-09-07T11:55:15;3.90;;;1.50;;
14797;SDS011;7490;63.708;20.368;2023-09-07T11:57:41;5.00;;;1.60;;
14797;SDS011;7490;63.708;20.368;2023-09-07T12:00:07;3.70;;;1.40;;
14797;SDS011;7490;63.708;20.368;2023-09-07T12:02:39;3.40;;;1.77;;
14797;SDS011;7490;63.708;20.368;2023-09-07T12:05:06;3.10;;;1.53;;
14797;SDS011;7490;63.708;20.368;2023-09-07T12:07:34;3.13;;;1.57;;
14797;SDS011;7490;63.708;20.368;2023-09-07T12:10:00;4.30;;;1.53;;
14797;SDS011;7490;63.708;20.368;2023-09-07T12:12:26;3.50;;;1.60;;
14797;SDS011;7490;63.708;20.368;2023-09-07T12:14:52;3.97;;;1.60;;
14797;SDS011;7490;63.708;20.368;2023-09-07T12:17:17;3.83;;;1.70;;
14797;SDS011;7490;63.708;20.368;2023-09-07T12:19:44;4.47;;;1.80;;
14797;SDS011;7490;63.708;20.368;2023-09-07T12:22:11;2.53;;;1.60;;
14797;SDS011;7490;63.708;20.368;2023-09-07T12:24:37;4.40;;;2.00;;
14797;SDS011;7490;63.708;20.368;2023-09-07T12:27:02;4.47;;;1.63;;
14797;SDS011;7490;63.708;20.368;2023-09-07T12:29:28;2.93;;;1.60;;
14797;SDS011;7490;63.708;20.368;2023-09-07T12:31:54;2.47;;;1.50;;
14797;SDS011;7490;63.708;20.368;2023-09-07T12:34:20;2.83;;;1.57;;
14797;SDS011;7490;63.708;20.368;2023-09-07T12:36:45;2.53;;;1.63;;
14797;SDS011;7490;63.708;20.368;2023-09-07T12:39:11;4.83;;;1.80;;
14797;SDS011;7490;63.708;20.368;2023-09-07T12:41:38;6.27;;;1.97;;
14797;SDS011;7490;63.708;20.368;2023-09-07T12:44:04;3.83;;;1.80;;
14797;SDS011;7490;63.708;20.368;2023-09-07T12:46:31;5.23;;;1.77;;
14797;SDS011;7490;63.708;20.368;2023-09-07T12:48:57;4.27;;;2.20;;
14797;SDS011;7490;63.708;20.368;2023-09-07T12:51:22;4.30;;;1.87;;
14797;SDS011;7490;63.708;20.368;2023-09-07T12:53:48;5.00;;;2.03;;
14797;SDS011;7490;63.708;20.368;2023-09-07T12:56:14;5.30;;;2.03;;
14797;SDS011;7490;63.708;20.368;2023-09-07T12:58:41;3.23;;;1.90;;
14797;SDS011;7490;63.708;20.368;2023-09-07T13:01:07;5.23;;;2.10;;
14797;SDS011;7490;63.708;20.368;2023-09-07T13:03:35;5.33;;;1.87;;
14797;SDS011;7490;63.708;20.368;2023-09-07T13:06:02;5.13;;;2.00;;
14797;SDS011;7490;63.708;20.368;2023-09-07T13:08:28;6.57;;;1.90;;
14797;SDS011;7490;63.708;20.368;2023-09-07T13:10:54;2.67;;;1.80;;
14797;SDS011;7490;63.708;20.368;2023-09-07T13:13:22;5.67;;;2.10;;
14797;SDS011;7490;63.708;20.368;2023-09-07T13:15:49;5.77;;;2.00;;
14797;SDS011;7490;63.708;20.368;2023-09-07T13:18:15;5.80;;;1.97;;
14797;SDS011;7490;63.708;20.368;2023-09-07T13:20:41;4.80;;;2.00;;
14797;SDS011;7490;63.708;20.368;2023-09-07T13:23:07;6.93;;;1.80;;
14797;SDS011;7490;63.708;20.368;2023-09-07T13:25:33;3.60;;;1.80;;
14797;SDS011;7490;63.708;20.368;2023-09-07T13:27:58;5.23;;;1.77;;
14797;SDS011;7490;63.708;20.368;2023-09-07T13:30:24;3.30;;;1.83;;
14797;SDS011;7490;63.708;20.368;2023-09-07T13:32:50;2.77;;;1.77;;
14797;SDS011;7490;63.708;20.368;2023-09-07T13:35:16;5.53;;;1.90;;
14797;SDS011;7490;63.708;20.368;2023-09-07T13:37:41;5.17;;;2.33;;
14797;SDS011;7490;63.708;20.368;2023-09-07T13:40:08;6.30;;;1.80;;
14797;SDS011;7490;63.708;20.368;2023-09-07T13:42:34;2.57;;;1.70;;
14797;SDS011;7490;63.708;20.368;2023-09-07T13:45:00;5.47;;;2.20;;
14797;SDS011;7490;63.708;20.368;2023-09-07T13:47:25;2.77;;;1.67;;
14797;SDS011;7490;63.708;20.368;2023-09-07T13:49:51;4.43;;;1.77;;
14797;SDS011;7490;63.708;20.368;2023-09-07T13:52:17;2.77;;;1.60;;
14797;SDS011;7490;63.708;20.368;2023-09-07T13:54:42;6.23;;;1.80;;
14797;SDS011;7490;63.708;20.368;2023-09-07T13:57:08;4.50;;;1.60;;
14797;SDS011;7490;63.708;20.368;2023-09-07T13:59:34;5.13;;;1.80;;
14797;SDS011;7490;63.708;20.368;2023-09-07T14:02:01;3.43;;;1.57;;
14797;SDS011;7490;63.708;20.368;2023-09-07T14:04:26;6.57;;;1.70;;
14797;SDS011;7490;63.708;20.368;2023-09-07T14:06:52;6.10;;;1.87;;
14797;SDS011;7490;63.708;20.368;2023-09-07T14:09:18;4.60;;;1.77;;
14797;SDS011;7490;63.708;20.368;2023-09-07T14:11:43;3.57;;;1.57;;
14797;SDS011;7490;63.708;20.368;2023-09-07T14:14:10;4.23;;;1.80;;
14797;SDS011;7490;63.708;20.368;2023-09-07T14:16:36;5.47;;;1.63;;
14797;SDS011;7490;63.708;20.368;2023-09-07T14:19:02;4.37;;;2.27;;
14797;SDS011;7490;63.708;20.368;2023-09-07T14:21:27;5.47;;;2.10;;
14797;SDS011;7490;63.708;20.368;2023-09-07T14:23:53;3.93;;;1.43;;
14797;SDS011;7490;63.708;20.368;2023-09-07T14:26:19;3.93;;;1.73;;
14797;SDS011;7490;63.708;20.368;2023-09-07T14:28:44;5.27;;;1.80;;
14797;SDS011;7490;63.708;20.368;2023-09-07T14:31:10;3.53;;;1.70;;
14797;SDS011;7490;63.708;20.368;2023-09-07T14:33:37;3.43;;;1.60;;
14797;SDS011;7490;63.708;20.368;2023-09-07T14:36:07;3.07;;;1.60;;
14797;SDS011;7490;63.708;20.368;2023-09-07T14:38:36;3.63;;;1.60;;
14797;SDS011;7490;63.708;20.368;2023-09-07T14:41:09;4.20;;;1.83;;
14797;SDS011;7490;63.708;20.368;2023-09-07T14:43:46;4.93;;;1.53;;
14797;SDS011;7490;63.708;20.368;2023-09-07T14:46:13;4.67;;;2.00;;